Terminal Aerodrome Forecast
Issued by NWS

Home | Current Version | Previous Version | Text Only | Print | Product List | Glossary On
Versions: 1 2 3 4 5 6 7 8 9 10 11 12 13 14 15 16 17 18 19 20 21 22 23 24 25
725
FTUS41 KBUF 290520
TAFJHW
TAF
KJHW 290520Z 2906/3006 09009KT P6SM BKN025
     FM291000 09008KT 4SM BR VCSH OVC009
     FM291400 10010G21KT 5SM SHRA OVC012
     FM291900 10014KT 6SM -SHRA OVC015
     FM300100 10010G16KT 6SM -SHRA OVC015
     FM300500 10010G17KT 6SM BR VCSH OVC015
      AMD LTD TO CLD VIS AND WIND=

USA.gov is the U.S. government's official web portal to all federal, state and local government web resources and services.